Terminal Aerodrome Forecast
Issued by NWS Austin/San Antonio, TX

Home | Current Version | Previous Version | Text Only | Print | Product List | Glossary On
Versions: 1 2 3 4 5 6 7 8 9 10 11 12 13
000
FTUS44 KEWX 051147
TAFAUS
TAF
KAUS 051147Z 0512/0618 19008KT P6SM BKN019
     FM051400 19014KT P6SM SCT050
     FM061000 19006KT P6SM BKN020
     FM061400 19012KT P6SM SCT050=

USA.gov is the U.S. government's official web portal to all federal, state and local government web resources and services.